Time;durP1;ratioP1;P1;durP2;ratioP2;P2;SDS_P1;SDS_P2;PMS_P1;PMS_P2;Temp;Humidity;BMP_temperature;BMP_pressure;BME280_temperature;BME280_humidity;BME280_pressure;Samples;Min_cycle;Max_cycle;Signal;HPM_P1;HPM_P2
2021/09/06 00:02:59;;;;;;;4.00;1.70;;;;;;;;;;8197474;28;20349;-73
2021/09/06 00:07:04;;;;;;;4.95;2.30;;;;;;;;;;8170981;28;20434;-72
2021/09/06 00:11:12;;;;;;;3.05;1.67;;;;;;;;;;8190008;28;20393;-73
2021/09/06 00:15:18;;;;;;;4.63;1.77;;;;;;;;;;8192759;28;20341;-73
2021/09/06 00:19:23;;;;;;;4.07;1.50;;;;;;;;;;8176306;28;20370;-73
2021/09/06 00:23:30;;;;;;;4.05;1.98;;;;;;;;;;8193694;28;20338;-73
2021/09/06 00:27:36;;;;;;;4.50;2.30;;;;;;;;;;8175208;28;20469;-73
2021/09/06 00:31:44;;;;;;;;;;;;;;;;;;8196841;28;20445;-73
2021/09/06 00:35:51;;;;;;;3.90;2.05;;;;;;;;;;8180322;28;20390;-73
2021/09/06 00:39:56;;;;;;;3.70;1.98;;;;;;;;;;8180288;28;20113;-73
2021/09/06 00:44:02;;;;;;;2.53;1.48;;;;;;;;;;8197272;28;20343;-73
2021/09/06 00:48:09;;;;;;;5.00;1.83;;;;;;;;;;8182576;28;20350;-73
2021/09/06 00:52:14;;;;;;;5.20;1.80;;;;;;;;;;8182050;28;20457;-72
2021/09/06 00:56:20;;;;;;;3.45;1.95;;;;;;;;;;8181962;28;20038;-73
2021/09/06 01:00:26;;;;;;;4.10;1.58;;;;;;;;;;8180489;28;20396;-73
2021/09/06 01:04:32;;;;;;;3.53;1.83;;;;;;;;;;8164794;28;20491;-72
2021/09/06 01:08:59;;;;;;;7.25;1.77;;;;;;;;;;8162663;28;20493;-72
2021/09/06 01:13:22;;;;;;;4.43;1.98;;;;;;;;;;8179257;28;20062;-72
2021/09/06 01:17:28;;;;;;;6.20;2.03;;;;;;;;;;8178790;28;20373;-73
2021/09/06 01:21:33;;;;;;;4.78;2.13;;;;;;;;;;8196250;28;20064;-73
2021/09/06 01:26:00;;;;;;;2.73;1.70;;;;;;;;;;8196825;28;20042;-73
2021/09/06 01:30:07;;;;;;;4.45;2.08;;;;;;;;;;8197627;28;20372;-73
2021/09/06 01:34:12;;;;;;;5.25;1.88;;;;;;;;;;8163193;28;20354;-72
2021/09/06 01:38:18;;;;;;;4.95;1.60;;;;;;;;;;8179835;28;20060;-73
2021/09/06 01:42:24;;;;;;;4.22;2.17;;;;;;;;;;8193912;28;20480;-73
2021/09/06 01:46:35;;;;;;;4.13;1.65;;;;;;;;;;8179520;28;20454;-73
2021/09/06 01:50:42;;;;;;;2.45;1.60;;;;;;;;;;8163256;28;20054;-73
2021/09/06 01:54:49;;;;;;;4.15;1.98;;;;;;;;;;8179179;28;20368;-73
2021/09/06 01:58:54;;;;;;;3.65;1.98;;;;;;;;;;8194659;28;20392;-73
2021/09/06 02:03:00;;;;;;;3.25;1.70;;;;;;;;;;8194597;28;20335;-73
2021/09/06 02:07:24;;;;;;;2.30;1.30;;;;;;;;;;8194398;28;20073;-73
2021/09/06 02:11:31;;;;;;;5.63;2.37;;;;;;;;;;8195730;28;20400;-73
2021/09/06 02:15:38;;;;;;;2.53;1.70;;;;;;;;;;8194839;28;20445;-73
2021/09/06 02:19:44;;;;;;;3.47;1.75;;;;;;;;;;8194825;28;20452;-73
2021/09/06 02:23:49;;;;;;;4.78;1.98;;;;;;;;;;8178295;28;20401;-73
2021/09/06 02:27:54;;;;;;;3.33;1.73;;;;;;;;;;8178508;28;20373;-73
2021/09/06 02:31:58;;;;;;;4.32;1.80;;;;;;;;;;8176937;28;20372;-73
2021/09/06 02:36:30;;;;;;;5.13;1.75;;;;;;;;;;8190646;28;20477;-73
2021/09/06 02:40:37;;;;;;;3.00;1.80;;;;;;;;;;8177498;28;20042;-74
2021/09/06 02:44:42;;;;;;;4.45;2.15;;;;;;;;;;8177256;28;20345;-74
2021/09/06 02:48:48;;;;;;;7.00;2.05;;;;;;;;;;8145955;28;20338;-74
2021/09/06 02:52:56;;;;;;;;;;;;;;;;;;8192626;28;20385;-73
2021/09/06 02:57:01;;;;;;;7.15;2.00;;;;;;;;;;8192096;28;20340;-73
2021/09/06 03:01:06;;;;;;;5.18;2.17;;;;;;;;;;8176512;28;20445;-74
2021/09/06 03:05:12;;;;;;;3.78;1.88;;;;;;;;;;8175999;28;20469;-73
2021/09/06 03:09:24;;;;;;;3.88;1.90;;;;;;;;;;8177155;28;20369;-73
2021/09/06 03:13:31;;;;;;;4.22;2.10;;;;;;;;;;8191241;28;20389;-73
2021/09/06 03:17:35;;;;;;;4.05;2.17;;;;;;;;;;8176266;28;20038;-73
2021/09/06 03:21:40;;;;;;;5.80;1.98;;;;;;;;;;8175906;28;20504;-73
2021/09/06 03:25:47;;;;;;;3.70;1.73;;;;;;;;;;8175235;28;20369;-73
2021/09/06 03:29:51;;;;;;;3.50;1.90;;;;;;;;;;8176840;28;20365;-73
2021/09/06 03:33:57;;;;;;;3.58;1.92;;;;;;;;;;8176089;28;20362;-73
2021/09/06 03:38:01;;;;;;;4.28;2.45;;;;;;;;;;8191597;28;20349;-73
2021/09/06 03:42:07;;;;;;;3.67;2.03;;;;;;;;;;8160344;28;20377;-73
2021/09/06 03:46:18;;;;;;;3.00;1.88;;;;;;;;;;8176341;28;20046;-74
2021/09/06 03:50:25;;;;;;;3.50;1.88;;;;;;;;;;8176023;28;20042;-73
2021/09/06 03:54:30;;;;;;;3.13;2.20;;;;;;;;;;8190894;28;20469;-73
2021/09/06 03:58:36;;;;;;;6.50;2.13;;;;;;;;;;8175485;28;20050;-73
2021/09/06 04:02:42;;;;;;;2.80;1.77;;;;;;;;;;8192575;28;20338;-74
2021/09/06 04:06:52;;;;;;;8.75;2.22;;;;;;;;;;8174433;28;20457;-73
2021/09/06 04:11:04;;;;;;;4.28;2.35;;;;;;;;;;8158111;28;20477;-74
2021/09/06 04:15:12;;;;;;;3.55;2.03;;;;;;;;;;8159818;28;20357;-73
2021/09/06 04:19:17;;;;;;;9.30;2.85;;;;;;;;;;8143574;28;20060;-73
2021/09/06 04:23:23;;;;;;;5.03;2.22;;;;;;;;;;8176346;28;20339;-73
2021/09/06 04:27:32;;;;;;;5.28;3.00;;;;;;;;;;8158854;28;20065;-74
2021/09/06 04:31:38;;;;;;;5.25;3.00;;;;;;;;;;8175419;28;20705;-73
2021/09/06 04:35:44;;;;;;;4.28;2.63;;;;;;;;;;8158735;28;20378;-74
2021/09/06 04:39:51;;;;;;;4.10;2.40;;;;;;;;;;8158321;28;20054;-73
2021/09/06 04:43:56;;;;;;;7.28;2.60;;;;;;;;;;8135203;28;20468;-74
2021/09/06 04:48:01;;;;;;;5.72;2.97;;;;;;;;;;8120746;28;20479;-73
2021/09/06 04:52:06;;;;;;;3.40;2.15;;;;;;;;;;8165230;28;20039;-74
2021/09/06 04:56:10;;;;;;;6.32;2.85;;;;;;;;;;8158412;28;21208;-73
2021/09/06 05:00:19;;;;;;;5.40;2.83;;;;;;;;;;8158053;28;20069;-74
2021/09/06 05:04:24;;;;;;;5.82;2.35;;;;;;;;;;8098545;28;20510;-74
2021/09/06 05:08:30;;;;;;;4.82;2.50;;;;;;;;;;8129542;28;20492;-74
2021/09/06 05:12:35;;;;;;;6.78;2.60;;;;;;;;;;8157704;28;20421;-73
2021/09/06 05:16:40;;;;;;;8.82;2.63;;;;;;;;;;8142345;28;20372;-73
2021/09/06 05:20:47;;;;;;;6.07;2.67;;;;;;;;;;8180715;28;20479;-73
2021/09/06 05:24:54;;;;;;;3.85;2.30;;;;;;;;;;8180005;28;20495;-74
2021/09/06 05:29:01;;;;;;;6.95;2.33;;;;;;;;;;8180458;28;20377;-73
2021/09/06 05:33:07;;;;;;;5.65;1.95;;;;;;;;;;8196981;28;20330;-73
2021/09/06 05:37:13;;;;;;;4.05;2.10;;;;;;;;;;8164041;28;20477;-73
2021/09/06 05:41:20;;;;;;;4.28;1.58;;;;;;;;;;8180073;28;20477;-73
2021/09/06 05:45:26;;;;;;;3.97;1.85;;;;;;;;;;8164062;28;20385;-72
2021/09/06 05:49:32;;;;;;;5.35;1.90;;;;;;;;;;8178698;28;20416;-72
2021/09/06 05:53:37;;;;;;;4.40;1.88;;;;;;;;;;8194906;28;20042;-73
2021/09/06 05:57:46;;;;;;;3.85;1.90;;;;;;;;;;8194671;28;20069;-72
2021/09/06 06:01:52;;;;;;;2.97;1.65;;;;;;;;;;8196223;28;20064;-72
2021/09/06 06:05:58;;;;;;;4.15;2.03;;;;;;;;;;8180364;28;20426;-72
2021/09/06 06:10:04;;;;;;;6.95;1.95;;;;;;;;;;8195415;28;20519;-73
2021/09/06 06:14:12;;;;;;;4.10;1.75;;;;;;;;;;8163042;28;20351;-72
2021/09/06 06:18:22;;;;;;;2.45;1.30;;;;;;;;;;8164164;28;20072;-72
2021/09/06 06:22:27;;;;;;;3.72;1.52;;;;;;;;;;8178976;28;20043;-72
2021/09/06 06:26:53;;;;;;;5.38;1.40;;;;;;;;;;8191169;28;20384;-73
2021/09/06 06:30:58;;;;;;;2.95;1.20;;;;;;;;;;8178744;28;20095;-72
2021/09/06 06:35:04;;;;;;;2.95;1.23;;;;;;;;;;8178331;28;20469;-72
2021/09/06 06:39:11;;;;;;;3.35;1.58;;;;;;;;;;8112644;28;20346;-72
2021/09/06 06:43:23;;;;;;;3.58;1.63;;;;;;;;;;8141325;28;20093;-72
2021/09/06 06:47:31;;;;;;;3.30;1.50;;;;;;;;;;8178966;28;20460;-72
2021/09/06 06:51:36;;;;;;;2.88;1.50;;;;;;;;;;8194172;28;20380;-72
2021/09/06 06:55:42;;;;;;;7.90;1.30;;;;;;;;;;8177531;28;20349;-72
2021/09/06 06:59:49;;;;;;;2.42;1.50;;;;;;;;;;8192779;28;20480;-71
2021/09/06 07:03:55;;;;;;;8.10;1.27;;;;;;;;;;8178818;28;20353;-72
2021/09/06 07:08:01;;;;;;;2.97;1.20;;;;;;;;;;8177704;28;20046;-72
2021/09/06 07:12:05;;;;;;;3.22;1.27;;;;;;;;;;8177193;28;20064;-72
2021/09/06 07:16:12;;;;;;;1.95;0.95;;;;;;;;;;8159657;28;20079;-72
2021/09/06 07:20:17;;;;;;;2.15;1.10;;;;;;;;;;8193952;28;20361;-72
2021/09/06 07:24:23;;;;;;;5.57;1.17;;;;;;;;;;8175831;28;20061;-73
2021/09/06 07:28:28;;;;;;;1.63;1.00;;;;;;;;;;8195026;28;20050;-71
2021/09/06 07:32:35;;;;;;;2.73;1.10;;;;;;;;;;8193565;28;20495;-72
2021/09/06 07:36:44;;;;;;;1.92;1.27;;;;;;;;;;8193640;28;20503;-72
2021/09/06 07:40:49;;;;;;;2.25;0.90;;;;;;;;;;8177490;28;20041;-72
2021/09/06 07:44:54;;;;;;;2.25;1.27;;;;;;;;;;8193031;28;20046;-73
2021/09/06 07:49:00;;;;;;;0.98;0.80;;;;;;;;;;8194299;28;20509;-72
2021/09/06 07:53:06;;;;;;;2.70;0.85;;;;;;;;;;8176575;28;20487;-72
2021/09/06 07:57:11;;;;;;;2.25;1.10;;;;;;;;;;8175724;28;20472;-72
2021/09/06 08:01:17;;;;;;;2.78;1.02;;;;;;;;;;8176209;28;20392;-71
2021/09/06 08:05:29;;;;;;;2.33;0.75;;;;;;;;;;8192173;28;20353;-71
2021/09/06 08:09:42;;;;;;;1.88;0.82;;;;;;;;;;8145444;28;20369;-72
2021/09/06 08:13:49;;;;;;;1.33;0.80;;;;;;;;;;8176009;28;20407;-72
2021/09/06 08:17:55;;;;;;;2.50;0.80;;;;;;;;;;8177031;28;20498;-72
2021/09/06 08:22:01;;;;;;;2.67;1.02;;;;;;;;;;8159428;28;20496;-72
2021/09/06 08:26:06;;;;;;;2.58;1.20;;;;;;;;;;8160340;28;20385;-72
2021/09/06 08:30:13;;;;;;;1.02;0.82;;;;;;;;;;8176956;28;20453;-72
2021/09/06 08:34:19;;;;;;;1.67;0.95;;;;;;;;;;8143466;28;20362;-72
2021/09/06 08:38:25;;;;;;;2.05;0.82;;;;;;;;;;8175780;28;20361;-71
2021/09/06 08:42:39;;;;;;;3.22;1.08;;;;;;;;;;8158912;28;20473;-72
2021/09/06 08:46:45;;;;;;;1.58;0.93;;;;;;;;;;8159354;28;20476;-72
2021/09/06 08:50:53;;;;;;;2.45;0.85;;;;;;;;;;8160233;28;20439;-71
2021/09/06 08:54:58;;;;;;;2.00;0.90;;;;;;;;;;8166950;28;20046;-71
2021/09/06 08:59:04;;;;;;;2.20;0.80;;;;;;;;;;8165882;28;20454;-72
2021/09/06 09:03:11;;;;;;;1.73;0.90;;;;;;;;;;8166544;28;20382;-72
2021/09/06 09:07:43;;;;;;;1.58;0.75;;;;;;;;;;8152980;28;20450;-72
2021/09/06 09:12:18;;;;;;;1.65;0.80;;;;;;;;;;8198188;28;20499;-72
2021/09/06 09:16:40;;;;;;;1.23;0.90;;;;;;;;;;8186903;28;20483;-72
2021/09/06 09:21:13;;;;;;;2.47;0.60;;;;;;;;;;8178198;28;20381;-71
2021/09/06 09:25:37;;;;;;;2.22;0.73;;;;;;;;;;8183865;28;20344;-72
2021/09/06 09:30:04;;;;;;;1.40;0.88;;;;;;;;;;8183845;28;20492;-71
2021/09/06 09:34:25;;;;;;;1.55;1.00;;;;;;;;;;8180413;28;20457;-71
2021/09/06 09:38:40;;;;;;;1.33;0.80;;;;;;;;;;8196531;28;20380;-71
2021/09/06 09:42:51;;;;;;;2.45;0.95;;;;;;;;;;8198696;28;20064;-72
2021/09/06 09:47:05;;;;;;;2.28;1.08;;;;;;;;;;8181351;28;20050;-73
2021/09/06 09:51:10;;;;;;;1.95;1.20;;;;;;;;;;8199971;28;20072;-72
2021/09/06 09:55:17;;;;;;;5.63;1.17;;;;;;;;;;8166353;28;20473;-72
2021/09/06 09:59:22;;;;;;;4.00;1.00;;;;;;;;;;8179392;28;20469;-72
2021/09/06 10:03:33;;;;;;;4.78;0.98;;;;;;;;;;8197327;28;20341;-72
2021/09/06 10:07:46;;;;;;;2.22;0.75;;;;;;;;;;8178100;28;20492;-72
2021/09/06 10:11:50;;;;;;;1.40;0.80;;;;;;;;;;8163682;28;20385;-72
2021/09/06 10:16:00;;;;;;;;;;;;;;;;;;8148269;28;20078;-72
2021/09/06 10:20:13;;;;;;;9.88;1.55;;;;;;;;;;8162888;28;19921;-71
2021/09/06 10:24:21;;;;;;;3.08;1.00;;;;;;;;;;8179880;28;20335;-72
2021/09/06 10:28:33;;;;;;;4.28;1.23;;;;;;;;;;8120342;28;20034;-72
2021/09/06 10:32:43;;;;;;;1.90;0.90;;;;;;;;;;8132080;28;20043;-72
2021/09/06 10:37:00;;;;;;;2.60;1.17;;;;;;;;;;8117535;28;20162;-71
2021/09/06 10:41:20;;;;;;;3.10;1.58;;;;;;;;;;8131295;28;20358;-71
2021/09/06 10:45:27;;;;;;;1.60;1.02;;;;;;;;;;8114486;28;20354;-72
2021/09/06 10:49:32;;;;;;;2.33;1.67;;;;;;;;;;8131481;28;20466;-72
2021/09/06 10:53:40;;;;;;;1.57;1.20;;;;;;;;;;8131422;28;20489;-72
2021/09/06 10:57:47;;;;;;;4.95;2.53;;;;;;;;;;8130119;28;20050;-72
2021/09/06 11:01:55;;;;;;;2.65;1.23;;;;;;;;;;8130097;28;20406;-72
2021/09/06 11:06:03;;;;;;;4.80;0.90;;;;;;;;;;8130680;28;20068;-72
2021/09/06 11:10:15;;;;;;;2.92;1.30;;;;;;;;;;8150280;28;20058;-72
2021/09/06 11:14:20;;;;;;;1.95;0.93;;;;;;;;;;8161259;28;20350;-72
2021/09/06 11:18:36;;;;;;;1.95;1.10;;;;;;;;;;8160875;28;20054;-71
2021/09/06 11:22:42;;;;;;;8.65;1.42;;;;;;;;;;8163322;28;20088;-72
2021/09/06 11:26:47;;;;;;;3.05;1.45;;;;;;;;;;8177647;28;20446;-71
2021/09/06 11:30:54;;;;;;;2.85;1.35;;;;;;;;;;8161691;28;20046;-72
2021/09/06 11:35:09;;;;;;;4.05;1.10;;;;;;;;;;8162821;28;20046;-72
2021/09/06 11:39:15;;;;;;;2.80;1.52;;;;;;;;;;8160146;28;20072;-71
2021/09/06 11:43:22;;;;;;;1.92;1.30;;;;;;;;;;8162978;28;20373;-71
2021/09/06 11:47:28;;;;;;;2.60;1.50;;;;;;;;;;8175882;28;20487;-72
2021/09/06 11:51:33;;;;;;;2.67;1.42;;;;;;;;;;8160281;28;20462;-72
2021/09/06 11:55:49;;;;;;;2.75;1.42;;;;;;;;;;8161446;28;20458;-72
2021/09/06 12:00:17;;;;;;;3.15;1.58;;;;;;;;;;8160902;28;20061;-73
2021/09/06 12:04:23;;;;;;;2.42;1.52;;;;;;;;;;8144048;28;20068;-73
2021/09/06 12:08:28;;;;;;;2.47;1.38;;;;;;;;;;8174587;28;20334;-72
2021/09/06 12:12:35;;;;;;;3.22;1.42;;;;;;;;;;8160365;28;20361;-73
2021/09/06 12:16:39;;;;;;;3.10;1.40;;;;;;;;;;8160438;28;20046;-71
2021/09/06 12:20:46;;;;;;;2.45;1.05;;;;;;;;;;8160441;28;20058;-72
2021/09/06 12:25:07;;;;;;;2.70;1.38;;;;;;;;;;8161535;28;20334;-71
2021/09/06 12:29:12;;;;;;;3.00;1.30;;;;;;;;;;8169353;28;20362;-72
2021/09/06 12:33:18;;;;;;;4.03;1.38;;;;;;;;;;8167509;28;20050;-71
2021/09/06 12:37:25;;;;;;;2.55;1.30;;;;;;;;;;8167231;28;20473;-72
2021/09/06 12:41:30;;;;;;;2.58;1.30;;;;;;;;;;8181451;28;20384;-72
2021/09/06 12:45:35;;;;;;;2.22;1.30;;;;;;;;;;8167018;28;20489;-72
2021/09/06 12:49:40;;;;;;;2.78;1.15;;;;;;;;;;8167112;28;20334;-71
2021/09/06 12:53:46;;;;;;;3.25;1.33;;;;;;;;;;8165796;28;20046;-72
2021/09/06 12:57:51;;;;;;;2.63;1.27;;;;;;;;;;8166326;28;20365;-72
2021/09/06 13:01:56;;;;;;;10.05;1.35;;;;;;;;;;8167372;28;20327;-71
2021/09/06 13:06:02;;;;;;;5.15;1.20;;;;;;;;;;8180301;28;20453;-71
2021/09/06 13:10:09;;;;;;;3.35;1.40;;;;;;;;;;8165815;28;20051;-72
2021/09/06 13:14:14;;;;;;;2.80;1.30;;;;;;;;;;8165969;28;20054;-71
2021/09/06 13:18:21;;;;;;;1.80;1.17;;;;;;;;;;8166520;28;20366;-72
2021/09/06 13:22:26;;;;;;;3.70;1.75;;;;;;;;;;8166334;28;20355;-71
2021/09/06 13:26:31;;;;;;;4.10;1.90;;;;;;;;;;8165266;28;20353;-71
2021/09/06 13:30:37;;;;;;;3.85;1.50;;;;;;;;;;8164202;28;20369;-71
2021/09/06 13:34:42;;;;;;;3.67;1.67;;;;;;;;;;8163037;28;20069;-71
2021/09/06 13:38:47;;;;;;;3.55;1.50;;;;;;;;;;8164500;28;20389;-72
2021/09/06 13:42:52;;;;;;;3.25;0.98;;;;;;;;;;8180130;28;20500;-72
2021/09/06 13:47:00;;;;;;;4.35;1.00;;;;;;;;;;8166681;28;20042;-71
2021/09/06 13:51:06;;;;;;;3.25;1.48;;;;;;;;;;8165979;28;20355;-72
2021/09/06 13:55:12;;;;;;;4.60;1.50;;;;;;;;;;8167258;28;20482;-71
2021/09/06 13:59:19;;;;;;;2.63;1.30;;;;;;;;;;8162993;28;20389;-71
2021/09/06 14:03:24;;;;;;;5.57;1.70;;;;;;;;;;8163443;28;20369;-71
2021/09/06 14:07:29;;;;;;;5.50;1.52;;;;;;;;;;8163986;28;20397;-72
2021/09/06 14:11:34;;;;;;;5.10;1.52;;;;;;;;;;8162967;28;20409;-71
2021/09/06 14:15:40;;;;;;;2.97;1.58;;;;;;;;;;8164236;28;20038;-72
2021/09/06 14:19:45;;;;;;;4.97;1.60;;;;;;;;;;8162172;28;20039;-72
2021/09/06 14:23:50;;;;;;;2.17;1.23;;;;;;;;;;8166232;28;20385;-73
2021/09/06 14:27:55;;;;;;;4.18;1.40;;;;;;;;;;8161268;28;20377;-72
2021/09/06 14:32:00;;;;;;;2.13;1.00;;;;;;;;;;8162111;28;20034;-71
2021/09/06 14:36:07;;;;;;;2.58;1.40;;;;;;;;;;8164034;28;20465;-72
2021/09/06 14:40:13;;;;;;;3.70;1.10;;;;;;;;;;8163348;28;20354;-71
2021/09/06 14:44:18;;;;;;;5.63;1.30;;;;;;;;;;8163430;28;20458;-72
2021/09/06 14:48:23;;;;;;;4.47;1.50;;;;;;;;;;8162446;28;20351;-72
2021/09/06 14:52:29;;;;;;;4.43;2.17;;;;;;;;;;8163027;28;20050;-71
2021/09/06 14:56:34;;;;;;;5.78;2.67;;;;;;;;;;8165756;28;20393;-71
2021/09/06 15:00:39;;;;;;;2.22;1.30;;;;;;;;;;8176906;28;20485;-72
2021/09/06 15:04:44;;;;;;;2.30;1.27;;;;;;;;;;8164228;28;20061;-71
2021/09/06 15:08:50;;;;;;;3.90;1.60;;;;;;;;;;8160802;28;20511;-72
2021/09/06 15:12:55;;;;;;;3.50;1.55;;;;;;;;;;8161400;28;20470;-73
2021/09/06 15:17:00;;;;;;;2.80;1.40;;;;;;;;;;8162732;28;20454;-72
2021/09/06 15:21:05;;;;;;;9.57;2.25;;;;;;;;;;8161658;28;20054;-72
2021/09/06 15:25:11;;;;;;;2.85;1.42;;;;;;;;;;8161760;28;20402;-71
2021/09/06 15:29:16;;;;;;;5.63;1.80;;;;;;;;;;8161151;28;20072;-72
2021/09/06 15:33:22;;;;;;;10.15;1.90;;;;;;;;;;8161901;28;20492;-72
2021/09/06 15:37:28;;;;;;;3.75;1.70;;;;;;;;;;8161015;28;20393;-71
2021/09/06 15:41:47;;;;;;;3.97;1.50;;;;;;;;;;8159036;28;20369;-71
2021/09/06 15:45:53;;;;;;;5.63;1.33;;;;;;;;;;8160602;28;20047;-71
2021/09/06 15:49:59;;;;;;;3.70;1.60;;;;;;;;;;8176098;28;20462;-71
2021/09/06 15:54:04;;;;;;;2.38;1.48;;;;;;;;;;8160098;28;20050;-71
2021/09/06 15:58:10;;;;;;;2.58;1.48;;;;;;;;;;8159719;28;20474;-71
2021/09/06 16:02:20;;;;;;;3.92;1.50;;;;;;;;;;8159513;28;20359;-72
2021/09/06 16:06:26;;;;;;;3.20;1.40;;;;;;;;;;8159924;28;20061;-72
2021/09/06 16:10:31;;;;;;;5.15;1.80;;;;;;;;;;8161240;28;20470;-72
2021/09/06 16:14:38;;;;;;;4.37;1.63;;;;;;;;;;8174466;28;20458;-71
2021/09/06 16:18:43;;;;;;;6.88;1.75;;;;;;;;;;8158934;28;20377;-71
2021/09/06 16:22:49;;;;;;;4.07;1.30;;;;;;;;;;8159598;28;20060;-71
2021/09/06 16:26:54;;;;;;;4.57;1.80;;;;;;;;;;8143441;28;20069;-71
2021/09/06 16:30:59;;;;;;;8.05;1.60;;;;;;;;;;8161360;28;20473;-71
2021/09/06 16:36:04;;;;;;;6.18;2.67;;;;;;;;;;8158886;28;20454;-72
2021/09/06 16:40:10;;;;;;;4.20;1.98;;;;;;;;;;8158869;28;20065;-70
2021/09/06 16:44:15;;;;;;;5.45;1.70;;;;;;;;;;8159225;28;20046;-71
2021/09/06 16:48:21;;;;;;;4.30;1.90;;;;;;;;;;8162356;28;20346;-71
2021/09/06 16:52:26;;;;;;;7.47;1.83;;;;;;;;;;8160978;28;20507;-71
2021/09/06 16:56:31;;;;;;;5.50;2.40;;;;;;;;;;8160370;28;20046;-71
2021/09/06 17:00:36;;;;;;;7.68;2.70;;;;;;;;;;8158391;28;20043;-71
2021/09/06 17:04:42;;;;;;;7.22;2.90;;;;;;;;;;8158898;28;20466;-71
2021/09/06 17:08:50;;;;;;;5.75;1.63;;;;;;;;;;8159413;28;20480;-71
2021/09/06 17:12:55;;;;;;;8.23;3.95;;;;;;;;;;8162649;28;20520;-71
2021/09/06 17:17:00;;;;;;;6.10;3.17;;;;;;;;;;8164469;28;20046;-71
2021/09/06 17:21:06;;;;;;;11.27;5.10;;;;;;;;;;8165039;28;20065;-71
2021/09/06 17:25:11;;;;;;;15.48;8.57;;;;;;;;;;8164836;28;20035;-72
2021/09/06 17:29:18;;;;;;;24.45;13.05;;;;;;;;;;8163559;28;20507;-72
2021/09/06 17:33:22;;;;;;;29.95;14.60;;;;;;;;;;8164139;28;20510;-72
2021/09/06 17:37:27;;;;;;;24.85;12.13;;;;;;;;;;8165009;28;20494;-71
2021/09/06 17:41:33;;;;;;;21.15;11.20;;;;;;;;;;8164211;28;20437;-71
2021/09/06 17:45:39;;;;;;;25.95;11.18;;;;;;;;;;8164072;28;20386;-71
2021/09/06 17:49:45;;;;;;;12.80;7.40;;;;;;;;;;8163413;28;20362;-72
2021/09/06 17:53:50;;;;;;;19.33;10.75;;;;;;;;;;8163094;28;20496;-71
2021/09/06 17:57:56;;;;;;;28.60;13.75;;;;;;;;;;8164218;28;20492;-72
2021/09/06 18:02:01;;;;;;;12.82;5.95;;;;;;;;;;8163365;28;20377;-71
2021/09/06 18:06:06;;;;;;;11.07;4.75;;;;;;;;;;8163344;28;20466;-71
2021/09/06 18:10:13;;;;;;;16.55;7.30;;;;;;;;;;8162025;28;20374;-71
2021/09/06 18:14:18;;;;;;;25.08;13.05;;;;;;;;;;8164447;28;20361;-71
2021/09/06 18:18:24;;;;;;;21.08;12.80;;;;;;;;;;8163090;28;20666;-72
2021/09/06 18:22:29;;;;;;;9.93;5.95;;;;;;;;;;8163592;28;20366;-72
2021/09/06 18:26:35;;;;;;;12.57;5.70;;;;;;;;;;8164419;28;20497;-71
2021/09/06 18:30:40;;;;;;;12.57;6.00;;;;;;;;;;8164388;28;20481;-73
2021/09/06 18:34:45;;;;;;;12.48;5.60;;;;;;;;;;8177549;28;20043;-71
2021/09/06 18:38:51;;;;;;;9.68;5.05;;;;;;;;;;8162561;28;20351;-71
2021/09/06 18:42:56;;;;;;;14.20;5.45;;;;;;;;;;8164174;28;20389;-71
2021/09/06 18:47:05;;;;;;;12.43;6.10;;;;;;;;;;8163041;28;20481;-71
2021/09/06 18:51:10;;;;;;;17.08;7.13;;;;;;;;;;8146899;28;20062;-71
2021/09/06 18:55:15;;;;;;;14.88;6.85;;;;;;;;;;8161980;28;20385;-71
2021/09/06 18:59:20;;;;;;;23.48;8.35;;;;;;;;;;8160830;28;20488;-71
2021/09/06 19:03:26;;;;;;;43.80;13.88;;;;;;;;;;8164075;28;20489;-71
2021/09/06 19:07:33;;;;;;;25.67;10.02;;;;;;;;;;8161274;28;20370;-71
2021/09/06 19:11:39;;;;;;;15.25;6.90;;;;;;;;;;8177662;28;20401;-71
2021/09/06 19:15:47;;;;;;;18.60;7.80;;;;;;;;;;8162871;28;20369;-71
2021/09/06 19:19:52;;;;;;;36.03;14.20;;;;;;;;;;8162133;28;20461;-71
2021/09/06 19:23:58;;;;;;;17.88;7.50;;;;;;;;;;8160092;28;20381;-71
2021/09/06 19:28:07;;;;;;;19.73;7.13;;;;;;;;;;8162303;28;20504;-72
2021/09/06 19:32:12;;;;;;;17.70;7.78;;;;;;;;;;8160012;28;20050;-72
2021/09/06 19:36:18;;;;;;;18.45;7.78;;;;;;;;;;8160229;28;20450;-72
2021/09/06 19:40:23;;;;;;;24.42;8.75;;;;;;;;;;8159565;28;20369;-71
2021/09/06 19:44:31;;;;;;;16.08;8.00;;;;;;;;;;8163530;28;20043;-73
2021/09/06 19:48:36;;;;;;;21.07;9.30;;;;;;;;;;8162221;28;20353;-71
2021/09/06 19:52:43;;;;;;;16.95;7.70;;;;;;;;;;8159364;28;20347;-72
2021/09/06 19:56:49;;;;;;;21.65;8.00;;;;;;;;;;8176040;28;20064;-74
2021/09/06 20:00:55;;;;;;;20.23;7.95;;;;;;;;;;8160595;28;20351;-72
2021/09/06 20:05:01;;;;;;;23.67;8.68;;;;;;;;;;8160203;28;20377;-72
2021/09/06 20:09:08;;;;;;;21.88;9.02;;;;;;;;;;8159311;28;20137;-72
2021/09/06 20:13:14;;;;;;;20.52;9.73;;;;;;;;;;8161310;28;20465;-72
2021/09/06 20:17:19;;;;;;;25.17;9.68;;;;;;;;;;8159393;28;20381;-72
2021/09/06 20:21:25;;;;;;;27.10;9.50;;;;;;;;;;8160647;28;20357;-72
2021/09/06 20:25:30;;;;;;;24.67;10.30;;;;;;;;;;8158778;28;20047;-72
2021/09/06 20:29:36;;;;;;;22.02;8.85;;;;;;;;;;8159526;28;20046;-72
2021/09/06 20:33:41;;;;;;;22.20;9.95;;;;;;;;;;8161136;28;20442;-72
2021/09/06 20:37:46;;;;;;;25.35;11.40;;;;;;;;;;8174660;28;20355;-72
2021/09/06 20:41:52;;;;;;;24.90;10.23;;;;;;;;;;8143881;28;20499;-72
2021/09/06 20:45:59;;;;;;;24.17;9.63;;;;;;;;;;8163214;28;20373;-72
2021/09/06 20:50:06;;;;;;;19.83;9.48;;;;;;;;;;8165279;28;20488;-72
2021/09/06 20:54:12;;;;;;;23.08;9.25;;;;;;;;;;8165438;28;20446;-71
2021/09/06 20:58:17;;;;;;;21.42;9.30;;;;;;;;;;8164620;28;20409;-73
2021/09/06 21:02:23;;;;;;;21.65;9.27;;;;;;;;;;8166405;28;20042;-72
2021/09/06 21:06:28;;;;;;;19.92;9.00;;;;;;;;;;8166210;28;20109;-73
2021/09/06 21:10:33;;;;;;;21.10;9.73;;;;;;;;;;8179054;28;20389;-72
2021/09/06 21:14:38;;;;;;;18.15;8.45;;;;;;;;;;8180328;28;20351;-72
2021/09/06 21:18:43;;;;;;;19.02;8.82;;;;;;;;;;8163792;28;20381;-72
2021/09/06 21:22:48;;;;;;;20.05;7.95;;;;;;;;;;8180608;28;20489;-72
2021/09/06 21:26:55;;;;;;;21.98;8.48;;;;;;;;;;8164629;28;20489;-72
2021/09/06 21:31:02;;;;;;;17.50;7.65;;;;;;;;;;8164214;28;20359;-72
2021/09/06 21:35:08;;;;;;;17.88;7.38;;;;;;;;;;8166426;28;20485;-72
2021/09/06 21:39:13;;;;;;;16.42;7.40;;;;;;;;;;8164923;28;20046;-72
2021/09/06 21:43:19;;;;;;;16.23;7.13;;;;;;;;;;8165685;28;20457;-73
2021/09/06 21:47:24;;;;;;;18.98;7.45;;;;;;;;;;8164834;28;20554;-72
2021/09/06 21:51:30;;;;;;;15.95;6.78;;;;;;;;;;8166669;28;20477;-72
2021/09/06 21:55:35;;;;;;;17.25;6.18;;;;;;;;;;8165972;28;20085;-72
2021/09/06 21:59:40;;;;;;;16.83;5.82;;;;;;;;;;8163466;28;20409;-72
2021/09/06 22:03:46;;;;;;;15.77;6.47;;;;;;;;;;8163462;28;20381;-72
2021/09/06 22:07:51;;;;;;;14.10;6.25;;;;;;;;;;8164178;28;20487;-72
2021/09/06 22:11:58;;;;;;;12.32;5.65;;;;;;;;;;8133290;28;20361;-72
2021/09/06 22:16:04;;;;;;;;;;;;;;;;;;8132476;28;20414;-72
2021/09/06 22:20:11;;;;;;;13.38;6.03;;;;;;;;;;8131005;28;20287;-72
2021/09/06 22:24:23;;;;;;;12.25;6.05;;;;;;;;;;8131727;28;20439;-72
2021/09/06 22:28:28;;;;;;;15.18;6.20;;;;;;;;;;8146926;28;20454;-72
2021/09/06 22:32:34;;;;;;;12.95;5.85;;;;;;;;;;8131313;28;20397;-73
2021/09/06 22:36:40;;;;;;;14.82;6.80;;;;;;;;;;8115317;28;20077;-72
2021/09/06 22:40:45;;;;;;;12.98;5.43;;;;;;;;;;8132550;28;20470;-72
2021/09/06 22:44:50;;;;;;;18.15;6.18;;;;;;;;;;8132131;28;20046;-73
2021/09/06 22:48:56;;;;;;;9.07;5.10;;;;;;;;;;8130852;28;20332;-72
2021/09/06 22:53:02;;;;;;;17.15;5.43;;;;;;;;;;8146527;28;20137;-72
2021/09/06 22:57:06;;;;;;;13.63;5.90;;;;;;;;;;8114712;28;20490;-72
2021/09/06 23:01:11;;;;;;;19.25;5.25;;;;;;;;;;8114534;28;20065;-72
2021/09/06 23:05:17;;;;;;;15.20;5.00;;;;;;;;;;8132234;28;20050;-72
2021/09/06 23:09:23;;;;;;;12.27;5.35;;;;;;;;;;8142633;28;20484;-72
2021/09/06 23:13:29;;;;;;;13.07;5.65;;;;;;;;;;8163637;28;20438;-71
2021/09/06 23:17:35;;;;;;;12.45;4.85;;;;;;;;;;8160919;28;20458;-72
2021/09/06 23:21:40;;;;;;;12.63;5.18;;;;;;;;;;8161728;28;20374;-72
2021/09/06 23:25:45;;;;;;;13.18;4.90;;;;;;;;;;8163032;28;20357;-73
2021/09/06 23:29:52;;;;;;;13.77;5.43;;;;;;;;;;8175611;28;20470;-72
2021/09/06 23:33:57;;;;;;;15.55;5.32;;;;;;;;;;8162319;28;20492;-72
2021/09/06 23:38:02;;;;;;;12.73;5.32;;;;;;;;;;8161384;28;20366;-72
2021/09/06 23:42:07;;;;;;;8.45;4.20;;;;;;;;;;8159819;28;20072;-72
2021/09/06 23:46:12;;;;;;;11.88;5.05;;;;;;;;;;8161089;28;20505;-72
2021/09/06 23:50:18;;;;;;;10.30;5.00;;;;;;;;;;8161098;28;20487;-72
2021/09/06 23:54:23;;;;;;;12.77;5.30;;;;;;;;;;8160882;28;20338;-73
2021/09/06 23:58:28;;;;;;;8.82;4.43;;;;;;;;;;8160183;28;20069;-72
